sensor_id;sensor_type;location;lat;lon;timestamp;pressure;altitude;pressure_sealevel;temperature
20289;BMP180;10303;51.960;8.372;2023-07-08T00:00:50;100838.00;;;22.30
20289;BMP180;10303;51.960;8.372;2023-07-08T00:03:19;100836.00;;;22.30
20289;BMP180;10303;51.960;8.372;2023-07-08T00:05:55;100839.00;;;22.20
20289;BMP180;10303;51.960;8.372;2023-07-08T00:08:21;100838.00;;;22.20
20289;BMP180;10303;51.960;8.372;2023-07-08T00:10:47;100831.00;;;22.20
20289;BMP180;10303;51.960;8.372;2023-07-08T00:13:13;100834.00;;;22.20
20289;BMP180;10303;51.960;8.372;2023-07-08T00:15:40;100833.00;;;22.20
20289;BMP180;10303;51.960;8.372;2023-07-08T00:18:16;100829.00;;;22.10
20289;BMP180;10303;51.960;8.372;2023-07-08T00:20:48;100835.00;;;22.10
20289;BMP180;10303;51.960;8.372;2023-07-08T00:23:16;100824.00;;;22.10
20289;BMP180;10303;51.960;8.372;2023-07-08T00:25:42;100822.00;;;22.10
20289;BMP180;10303;51.960;8.372;2023-07-08T00:28:20;100820.00;;;22.10
20289;BMP180;10303;51.960;8.372;2023-07-08T00:30:47;100816.00;;;22.10
20289;BMP180;10303;51.960;8.372;2023-07-08T00:33:15;100811.00;;;22.00
20289;BMP180;10303;51.960;8.372;2023-07-08T00:35:44;100809.00;;;22.00
20289;BMP180;10303;51.960;8.372;2023-07-08T00:38:27;100812.00;;;21.90
20289;BMP180;10303;51.960;8.372;2023-07-08T00:43:43;100804.00;;;21.90
20289;BMP180;10303;51.960;8.372;2023-07-08T00:51:35;100807.00;;;21.80
20289;BMP180;10303;51.960;8.372;2023-07-08T00:54:05;100814.00;;;21.80
20289;BMP180;10303;51.960;8.372;2023-07-08T00:59:50;100813.00;;;21.70
20289;BMP180;10303;51.960;8.372;2023-07-08T01:02:23;100805.00;;;21.70
20289;BMP180;10303;51.960;8.372;2023-07-08T01:05:00;100805.00;;;21.60
20289;BMP180;10303;51.960;8.372;2023-07-08T01:07:27;100809.00;;;21.60
20289;BMP180;10303;51.960;8.372;2023-07-08T01:10:04;100802.00;;;21.60
20289;BMP180;10303;51.960;8.372;2023-07-08T01:12:39;100793.00;;;21.60
20289;BMP180;10303;51.960;8.372;2023-07-08T01:15:09;100799.00;;;21.60
20289;BMP180;10303;51.960;8.372;2023-07-08T01:17:36;100800.00;;;21.50
20289;BMP180;10303;51.960;8.372;2023-07-08T01:20:05;100795.00;;;21.50
20289;BMP180;10303;51.960;8.372;2023-07-08T01:22:36;100792.00;;;21.50
20289;BMP180;10303;51.960;8.372;2023-07-08T01:25:03;100792.00;;;21.50
20289;BMP180;10303;51.960;8.372;2023-07-08T01:27:35;100793.00;;;21.40
20289;BMP180;10303;51.960;8.372;2023-07-08T01:30:05;100779.00;;;21.40
20289;BMP180;10303;51.960;8.372;2023-07-08T01:32:36;100775.00;;;21.40
20289;BMP180;10303;51.960;8.372;2023-07-08T01:35:04;100780.00;;;21.40
20289;BMP180;10303;51.960;8.372;2023-07-08T01:37:40;100778.00;;;21.40
20289;BMP180;10303;51.960;8.372;2023-07-08T01:42:45;100780.00;;;21.30
20289;BMP180;10303;51.960;8.372;2023-07-08T01:45:16;100779.00;;;21.30
20289;BMP180;10303;51.960;8.372;2023-07-08T01:47:46;100776.00;;;21.30
20289;BMP180;10303;51.960;8.372;2023-07-08T01:50:14;100773.00;;;21.30
20289;BMP180;10303;51.960;8.372;2023-07-08T01:52:40;100769.00;;;21.20
20289;BMP180;10303;51.960;8.372;2023-07-08T01:55:07;100766.00;;;21.20
20289;BMP180;10303;51.960;8.372;2023-07-08T01:57:33;100765.00;;;21.20
20289;BMP180;10303;51.960;8.372;2023-07-08T01:59:59;100763.00;;;21.20
20289;BMP180;10303;51.960;8.372;2023-07-08T02:02:25;100769.00;;;21.20
20289;BMP180;10303;51.960;8.372;2023-07-08T02:04:51;100764.00;;;21.20
20289;BMP180;10303;51.960;8.372;2023-07-08T02:07:17;100764.00;;;21.20
20289;BMP180;10303;51.960;8.372;2023-07-08T02:09:43;100762.00;;;21.10
20289;BMP180;10303;51.960;8.372;2023-07-08T02:12:09;100757.00;;;21.10
20289;BMP180;10303;51.960;8.372;2023-07-08T02:14:35;100747.00;;;21.10
20289;BMP180;10303;51.960;8.372;2023-07-08T02:17:01;100746.00;;;21.10
20289;BMP180;10303;51.960;8.372;2023-07-08T02:19:31;100749.00;;;21.10
20289;BMP180;10303;51.960;8.372;2023-07-08T02:21:57;100738.00;;;21.10
20289;BMP180;10303;51.960;8.372;2023-07-08T02:24:23;100745.00;;;21.00
20289;BMP180;10303;51.960;8.372;2023-07-08T02:26:49;100741.00;;;21.00
20289;BMP180;10303;51.960;8.372;2023-07-08T02:29:15;100748.00;;;21.00
20289;BMP180;10303;51.960;8.372;2023-07-08T02:31:41;100747.00;;;21.00
20289;BMP180;10303;51.960;8.372;2023-07-08T02:34:07;100742.00;;;20.90
20289;BMP180;10303;51.960;8.372;2023-07-08T02:36:34;100746.00;;;20.90
20289;BMP180;10303;51.960;8.372;2023-07-08T02:39:00;100730.00;;;20.90
20289;BMP180;10303;51.960;8.372;2023-07-08T02:41:26;100746.00;;;20.90
20289;BMP180;10303;51.960;8.372;2023-07-08T02:43:53;100736.00;;;20.90
20289;BMP180;10303;51.960;8.372;2023-07-08T02:46:19;100736.00;;;20.90
20289;BMP180;10303;51.960;8.372;2023-07-08T02:48:45;100735.00;;;20.90
20289;BMP180;10303;51.960;8.372;2023-07-08T02:51:11;100733.00;;;20.80
20289;BMP180;10303;51.960;8.372;2023-07-08T02:53:37;100739.00;;;20.80
20289;BMP180;10303;51.960;8.372;2023-07-08T02:56:03;100734.00;;;20.80
20289;BMP180;10303;51.960;8.372;2023-07-08T02:58:29;100743.00;;;20.80
20289;BMP180;10303;51.960;8.372;2023-07-08T03:00:57;100734.00;;;20.80
20289;BMP180;10303;51.960;8.372;2023-07-08T03:03:27;100736.00;;;20.70
20289;BMP180;10303;51.960;8.372;2023-07-08T03:06:01;100735.00;;;20.70
20289;BMP180;10303;51.960;8.372;2023-07-08T03:08:29;100725.00;;;20.70
20289;BMP180;10303;51.960;8.372;2023-07-08T03:11:00;100732.00;;;20.60
20289;BMP180;10303;51.960;8.372;2023-07-08T03:13:27;100733.00;;;20.60
20289;BMP180;10303;51.960;8.372;2023-07-08T03:15:56;100733.00;;;20.60
20289;BMP180;10303;51.960;8.372;2023-07-08T03:18:23;100739.00;;;20.60
20289;BMP180;10303;51.960;8.372;2023-07-08T03:20:55;100740.00;;;20.60
20289;BMP180;10303;51.960;8.372;2023-07-08T03:23:23;100737.00;;;20.60
20289;BMP180;10303;51.960;8.372;2023-07-08T03:25:52;100734.00;;;20.50
20289;BMP180;10303;51.960;8.372;2023-07-08T03:28:19;100733.00;;;20.50
20289;BMP180;10303;51.960;8.372;2023-07-08T03:30:52;100733.00;;;20.40
20289;BMP180;10303;51.960;8.372;2023-07-08T03:33:19;100736.00;;;20.50
20289;BMP180;10303;51.960;8.372;2023-07-08T03:35:45;100724.00;;;20.40
20289;BMP180;10303;51.960;8.372;2023-07-08T03:38:11;100727.00;;;20.40
20289;BMP180;10303;51.960;8.372;2023-07-08T03:40:37;100721.00;;;20.40
20289;BMP180;10303;51.960;8.372;2023-07-08T03:43:03;100733.00;;;20.40
20289;BMP180;10303;51.960;8.372;2023-07-08T03:45:30;100726.00;;;20.40
20289;BMP180;10303;51.960;8.372;2023-07-08T03:47:57;100719.00;;;20.40
20289;BMP180;10303;51.960;8.372;2023-07-08T03:50:25;100729.00;;;20.40
20289;BMP180;10303;51.960;8.372;2023-07-08T03:52:54;100726.00;;;20.40
20289;BMP180;10303;51.960;8.372;2023-07-08T03:55:23;100736.00;;;20.40
20289;BMP180;10303;51.960;8.372;2023-07-08T03:57:49;100723.00;;;20.30
20289;BMP180;10303;51.960;8.372;2023-07-08T04:00:16;100730.00;;;20.30
20289;BMP180;10303;51.960;8.372;2023-07-08T04:02:44;100729.00;;;20.30
20289;BMP180;10303;51.960;8.372;2023-07-08T04:05:21;100721.00;;;20.30
20289;BMP180;10303;51.960;8.372;2023-07-08T04:07:48;100737.00;;;20.30
20289;BMP180;10303;51.960;8.372;2023-07-08T04:10:15;100728.00;;;20.30
20289;BMP180;10303;51.960;8.372;2023-07-08T04:12:42;100722.00;;;20.30
20289;BMP180;10303;51.960;8.372;2023-07-08T04:15:10;100728.00;;;20.30
20289;BMP180;10303;51.960;8.372;2023-07-08T04:17:47;100736.00;;;20.30
20289;BMP180;10303;51.960;8.372;2023-07-08T04:20:16;100733.00;;;20.30
20289;BMP180;10303;51.960;8.372;2023-07-08T04:22:44;100736.00;;;20.30
20289;BMP180;10303;51.960;8.372;2023-07-08T04:25:12;100739.00;;;20.30
20289;BMP180;10303;51.960;8.372;2023-07-08T04:27:40;100735.00;;;20.40
20289;BMP180;10303;51.960;8.372;2023-07-08T04:30:09;100739.00;;;20.40
20289;BMP180;10303;51.960;8.372;2023-07-08T04:32:40;100738.00;;;20.40
20289;BMP180;10303;51.960;8.372;2023-07-08T04:35:07;100748.00;;;20.50
20289;BMP180;10303;51.960;8.372;2023-07-08T04:37:33;100740.00;;;20.50
20289;BMP180;10303;51.960;8.372;2023-07-08T04:39:59;100739.00;;;20.50
20289;BMP180;10303;51.960;8.372;2023-07-08T04:42:26;100750.00;;;20.60
20289;BMP180;10303;51.960;8.372;2023-07-08T04:44:54;100745.00;;;20.60
20289;BMP180;10303;51.960;8.372;2023-07-08T04:47:19;100751.00;;;20.60
20289;BMP180;10303;51.960;8.372;2023-07-08T04:49:46;100744.00;;;20.70
20289;BMP180;10303;51.960;8.372;2023-07-08T04:52:12;100751.00;;;20.70
20289;BMP180;10303;51.960;8.372;2023-07-08T04:54:38;100751.00;;;20.70
20289;BMP180;10303;51.960;8.372;2023-07-08T04:57:04;100761.00;;;20.80
20289;BMP180;10303;51.960;8.372;2023-07-08T04:59:31;100757.00;;;20.80
20289;BMP180;10303;51.960;8.372;2023-07-08T05:02:00;100760.00;;;20.90
20289;BMP180;10303;51.960;8.372;2023-07-08T05:04:26;100766.00;;;20.90
20289;BMP180;10303;51.960;8.372;2023-07-08T05:06:52;100756.00;;;21.00
20289;BMP180;10303;51.960;8.372;2023-07-08T05:09:18;100766.00;;;21.00
20289;BMP180;10303;51.960;8.372;2023-07-08T05:11:44;100759.00;;;21.10
20289;BMP180;10303;51.960;8.372;2023-07-08T05:14:13;100758.00;;;21.10
20289;BMP180;10303;51.960;8.372;2023-07-08T05:16:39;100754.00;;;21.20
20289;BMP180;10303;51.960;8.372;2023-07-08T05:19:06;100761.00;;;21.30
20289;BMP180;10303;51.960;8.372;2023-07-08T05:21:32;100752.00;;;21.30
20289;BMP180;10303;51.960;8.372;2023-07-08T05:24:05;100761.00;;;21.40
20289;BMP180;10303;51.960;8.372;2023-07-08T05:26:32;100758.00;;;21.50
20289;BMP180;10303;51.960;8.372;2023-07-08T05:28:58;100760.00;;;21.50
20289;BMP180;10303;51.960;8.372;2023-07-08T05:31:24;100753.00;;;21.60
20289;BMP180;10303;51.960;8.372;2023-07-08T05:33:51;100750.00;;;21.70
20289;BMP180;10303;51.960;8.372;2023-07-08T05:36:17;100755.00;;;21.70
20289;BMP180;10303;51.960;8.372;2023-07-08T05:38:42;100744.00;;;21.80
20289;BMP180;10303;51.960;8.372;2023-07-08T05:41:08;100744.00;;;21.90
20289;BMP180;10303;51.960;8.372;2023-07-08T05:43:34;100748.00;;;22.00
20289;BMP180;10303;51.960;8.372;2023-07-08T05:46:02;100750.00;;;22.10
20289;BMP180;10303;51.960;8.372;2023-07-08T05:48:28;100757.00;;;22.10
20289;BMP180;10303;51.960;8.372;2023-07-08T05:50:55;100749.00;;;22.20
20289;BMP180;10303;51.960;8.372;2023-07-08T05:53:21;100743.00;;;22.30
20289;BMP180;10303;51.960;8.372;2023-07-08T05:55:49;100752.00;;;22.40
20289;BMP180;10303;51.960;8.372;2023-07-08T05:58:15;100747.00;;;22.40
20289;BMP180;10303;51.960;8.372;2023-07-08T06:00:43;100739.00;;;22.50
20289;BMP180;10303;51.960;8.372;2023-07-08T06:03:09;100735.00;;;22.60
20289;BMP180;10303;51.960;8.372;2023-07-08T06:05:37;100746.00;;;22.70
20289;BMP180;10303;51.960;8.372;2023-07-08T06:08:06;100743.00;;;22.80
20289;BMP180;10303;51.960;8.372;2023-07-08T06:10:33;100741.00;;;22.90
20289;BMP180;10303;51.960;8.372;2023-07-08T06:12:59;100735.00;;;23.00
20289;BMP180;10303;51.960;8.372;2023-07-08T06:15:25;100734.00;;;23.10
20289;BMP180;10303;51.960;8.372;2023-07-08T06:17:51;100733.00;;;23.20
20289;BMP180;10303;51.960;8.372;2023-07-08T06:20:17;100737.00;;;23.30
20289;BMP180;10303;51.960;8.372;2023-07-08T06:22:43;100736.00;;;23.40
20289;BMP180;10303;51.960;8.372;2023-07-08T06:25:09;100738.00;;;23.50
20289;BMP180;10303;51.960;8.372;2023-07-08T06:27:36;100736.00;;;23.60
20289;BMP180;10303;51.960;8.372;2023-07-08T06:30:02;100739.00;;;23.80
20289;BMP180;10303;51.960;8.372;2023-07-08T06:32:28;100737.00;;;23.90
20289;BMP180;10303;51.960;8.372;2023-07-08T06:34:55;100739.00;;;24.00
20289;BMP180;10303;51.960;8.372;2023-07-08T06:37:21;100739.00;;;24.10
20289;BMP180;10303;51.960;8.372;2023-07-08T06:39:47;100754.00;;;24.20
20289;BMP180;10303;51.960;8.372;2023-07-08T06:42:13;100744.00;;;24.30
20289;BMP180;10303;51.960;8.372;2023-07-08T06:44:45;100743.00;;;24.40
20289;BMP180;10303;51.960;8.372;2023-07-08T06:47:21;100748.00;;;24.50
20289;BMP180;10303;51.960;8.372;2023-07-08T06:49:48;100741.00;;;24.60
20289;BMP180;10303;51.960;8.372;2023-07-08T06:52:14;100740.00;;;24.70
20289;BMP180;10303;51.960;8.372;2023-07-08T06:54:40;100742.00;;;24.80
20289;BMP180;10303;51.960;8.372;2023-07-08T06:57:07;100743.00;;;24.90
20289;BMP180;10303;51.960;8.372;2023-07-08T06:59:34;100737.00;;;25.10
20289;BMP180;10303;51.960;8.372;2023-07-08T07:02:00;100738.00;;;25.20
20289;BMP180;10303;51.960;8.372;2023-07-08T07:04:26;100744.00;;;25.30
20289;BMP180;10303;51.960;8.372;2023-07-08T07:06:52;100743.00;;;25.40
20289;BMP180;10303;51.960;8.372;2023-07-08T07:09:18;100747.00;;;25.50
20289;BMP180;10303;51.960;8.372;2023-07-08T07:11:44;100746.00;;;25.70
20289;BMP180;10303;51.960;8.372;2023-07-08T07:14:11;100748.00;;;25.80
20289;BMP180;10303;51.960;8.372;2023-07-08T07:16:37;100749.00;;;25.90
20289;BMP180;10303;51.960;8.372;2023-07-08T07:19:03;100751.00;;;26.00
20289;BMP180;10303;51.960;8.372;2023-07-08T07:21:29;100743.00;;;26.10
20289;BMP180;10303;51.960;8.372;2023-07-08T07:23:56;100739.00;;;26.20
20289;BMP180;10303;51.960;8.372;2023-07-08T07:26:22;100747.00;;;26.40
20289;BMP180;10303;51.960;8.372;2023-07-08T07:28:48;100750.00;;;26.50
20289;BMP180;10303;51.960;8.372;2023-07-08T07:31:14;100752.00;;;26.60
20289;BMP180;10303;51.960;8.372;2023-07-08T07:33:40;100760.00;;;26.80
20289;BMP180;10303;51.960;8.372;2023-07-08T07:36:06;100755.00;;;26.90
20289;BMP180;10303;51.960;8.372;2023-07-08T07:38:33;100761.00;;;27.00
20289;BMP180;10303;51.960;8.372;2023-07-08T07:40:59;100753.00;;;27.20
20289;BMP180;10303;51.960;8.372;2023-07-08T07:43:30;100757.00;;;27.30
20289;BMP180;10303;51.960;8.372;2023-07-08T07:45:56;100754.00;;;27.50
20289;BMP180;10303;51.960;8.372;2023-07-08T07:48:22;100758.00;;;27.60
20289;BMP180;10303;51.960;8.372;2023-07-08T07:50:50;100757.00;;;27.80
20289;BMP180;10303;51.960;8.372;2023-07-08T07:53:18;100750.00;;;28.00
20289;BMP180;10303;51.960;8.372;2023-07-08T07:55:44;100750.00;;;28.20
20289;BMP180;10303;51.960;8.372;2023-07-08T07:58:10;100743.00;;;28.40
20289;BMP180;10303;51.960;8.372;2023-07-08T08:00:38;100750.00;;;28.60
20289;BMP180;10303;51.960;8.372;2023-07-08T08:03:04;100755.00;;;28.80
20289;BMP180;10303;51.960;8.372;2023-07-08T08:05:30;100755.00;;;29.00
20289;BMP180;10303;51.960;8.372;2023-07-08T08:07:56;100746.00;;;29.20
20289;BMP180;10303;51.960;8.372;2023-07-08T08:10:22;100753.00;;;29.40
20289;BMP180;10303;51.960;8.372;2023-07-08T08:12:48;100761.00;;;29.60
20289;BMP180;10303;51.960;8.372;2023-07-08T08:15:17;100762.00;;;29.80
20289;BMP180;10303;51.960;8.372;2023-07-08T08:17:43;100761.00;;;30.00
20289;BMP180;10303;51.960;8.372;2023-07-08T08:20:13;100760.00;;;30.30
20289;BMP180;10303;51.960;8.372;2023-07-08T08:22:39;100766.00;;;30.50
20289;BMP180;10303;51.960;8.372;2023-07-08T08:25:06;100767.00;;;30.70
20289;BMP180;10303;51.960;8.372;2023-07-08T08:27:32;100769.00;;;30.90
20289;BMP180;10303;51.960;8.372;2023-07-08T08:29:59;100766.00;;;31.10
20289;BMP180;10303;51.960;8.372;2023-07-08T08:32:25;100766.00;;;31.30
20289;BMP180;10303;51.960;8.372;2023-07-08T08:34:51;100767.00;;;31.50
20289;BMP180;10303;51.960;8.372;2023-07-08T08:37:17;100773.00;;;31.70
20289;BMP180;10303;51.960;8.372;2023-07-08T08:39:44;100772.00;;;31.90
20289;BMP180;10303;51.960;8.372;2023-07-08T08:42:42;100769.00;;;32.10
20289;BMP180;10303;51.960;8.372;2023-07-08T08:45:16;100778.00;;;32.30
20289;BMP180;10303;51.960;8.372;2023-07-08T08:47:49;100781.00;;;32.40
20289;BMP180;10303;51.960;8.372;2023-07-08T08:52:53;100787.00;;;32.80
20289;BMP180;10303;51.960;8.372;2023-07-08T08:55:23;100787.00;;;33.00
20289;BMP180;10303;51.960;8.372;2023-07-08T08:58:39;100790.00;;;33.20
20289;BMP180;10303;51.960;8.372;2023-07-08T09:01:15;100789.00;;;33.50
20289;BMP180;10303;51.960;8.372;2023-07-08T09:04:13;100785.00;;;33.70
20289;BMP180;10303;51.960;8.372;2023-07-08T09:06:42;100790.00;;;33.90
20289;BMP180;10303;51.960;8.372;2023-07-08T09:09:47;100787.00;;;34.10
20289;BMP180;10303;51.960;8.372;2023-07-08T09:12:25;100793.00;;;34.30
20289;BMP180;10303;51.960;8.372;2023-07-08T09:14:53;100788.00;;;34.50
20289;BMP180;10303;51.960;8.372;2023-07-08T09:17:32;100788.00;;;34.60
20289;BMP180;10303;51.960;8.372;2023-07-08T09:26:13;100781.00;;;35.10
20289;BMP180;10303;51.960;8.372;2023-07-08T09:28:19;100787.00;;;35.30
20289;BMP180;10303;51.960;8.372;2023-07-08T09:30:48;100781.00;;;35.50
20289;BMP180;10303;51.960;8.372;2023-07-08T09:33:19;100786.00;;;35.70
20289;BMP180;10303;51.960;8.372;2023-07-08T09:35:49;100774.00;;;35.90
20289;BMP180;10303;51.960;8.372;2023-07-08T09:38:21;100773.00;;;36.10
20289;BMP180;10303;51.960;8.372;2023-07-08T09:40:53;100775.00;;;36.30
20289;BMP180;10303;51.960;8.372;2023-07-08T09:43:34;100777.00;;;36.50
20289;BMP180;10303;51.960;8.372;2023-07-08T09:46:05;100775.00;;;36.70
20289;BMP180;10303;51.960;8.372;2023-07-08T09:48:37;100776.00;;;36.80
20289;BMP180;10303;51.960;8.372;2023-07-08T09:51:05;100782.00;;;37.00
20289;BMP180;10303;51.960;8.372;2023-07-08T09:53:30;100783.00;;;37.10
20289;BMP180;10303;51.960;8.372;2023-07-08T09:56:03;100787.00;;;37.30
20289;BMP180;10303;51.960;8.372;2023-07-08T09:58:40;100785.00;;;37.40
20289;BMP180;10303;51.960;8.372;2023-07-08T10:01:17;100783.00;;;37.60
20289;BMP180;10303;51.960;8.372;2023-07-08T10:03:47;100782.00;;;37.70
20289;BMP180;10303;51.960;8.372;2023-07-08T10:06:33;100783.00;;;37.90
20289;BMP180;10303;51.960;8.372;2023-07-08T10:09:12;100776.00;;;38.00
20289;BMP180;10303;51.960;8.372;2023-07-08T10:12:02;100786.00;;;38.20
20289;BMP180;10303;51.960;8.372;2023-07-08T10:14:48;100796.00;;;38.30
20289;BMP180;10303;51.960;8.372;2023-07-08T10:17:19;100792.00;;;38.50
20289;BMP180;10303;51.960;8.372;2023-07-08T10:19:46;100796.00;;;38.70
20289;BMP180;10303;51.960;8.372;2023-07-08T10:30:30;100801.00;;;39.50
20289;BMP180;10303;51.960;8.372;2023-07-08T11:10:25;100781.00;;;41.90
20289;BMP180;10303;51.960;8.372;2023-07-08T11:13:06;100779.00;;;42.00
20289;BMP180;10303;51.960;8.372;2023-07-08T11:15:56;100776.00;;;42.00
20289;BMP180;10303;51.960;8.372;2023-07-08T11:18:59;100773.00;;;42.10
20289;BMP180;10303;51.960;8.372;2023-07-08T11:21:43;100769.00;;;42.10
20289;BMP180;10303;51.960;8.372;2023-07-08T11:24:42;100764.00;;;42.10
20289;BMP180;10303;51.960;8.372;2023-07-08T11:27:29;100767.00;;;42.10
20289;BMP180;10303;51.960;8.372;2023-07-08T11:30:24;100761.00;;;42.10
20289;BMP180;10303;51.960;8.372;2023-07-08T11:33:03;100761.00;;;42.20
20289;BMP180;10303;51.960;8.372;2023-07-08T11:36:02;100765.00;;;42.20
20289;BMP180;10303;51.960;8.372;2023-07-08T11:38:31;100765.00;;;42.30
20289;BMP180;10303;51.960;8.372;2023-07-08T11:43:51;100753.00;;;42.30
20289;BMP180;10303;51.960;8.372;2023-07-08T11:46:25;100752.00;;;42.40
20289;BMP180;10303;51.960;8.372;2023-07-08T11:48:57;100748.00;;;42.50
20289;BMP180;10303;51.960;8.372;2023-07-08T11:51:31;100753.00;;;42.50
20289;BMP180;10303;51.960;8.372;2023-07-08T11:56:48;100751.00;;;42.60
20289;BMP180;10303;51.960;8.372;2023-07-08T11:59:20;100749.00;;;42.60
20289;BMP180;10303;51.960;8.372;2023-07-08T12:02:10;100746.00;;;42.60
20289;BMP180;10303;51.960;8.372;2023-07-08T12:07:45;100742.00;;;42.70
20289;BMP180;10303;51.960;8.372;2023-07-08T12:10:31;100738.00;;;42.80
20289;BMP180;10303;51.960;8.372;2023-07-08T12:12:58;100736.00;;;42.90
20289;BMP180;10303;51.960;8.372;2023-07-08T12:15:26;100730.00;;;43.00
20289;BMP180;10303;51.960;8.372;2023-07-08T12:20:37;100732.00;;;43.10
20289;BMP180;10303;51.960;8.372;2023-07-08T12:23:23;100732.00;;;43.10
20289;BMP180;10303;51.960;8.372;2023-07-08T12:25:50;100737.00;;;43.20
20289;BMP180;10303;51.960;8.372;2023-07-08T12:28:18;100726.00;;;43.10
20289;BMP180;10303;51.960;8.372;2023-07-08T12:30:46;100727.00;;;43.10
20289;BMP180;10303;51.960;8.372;2023-07-08T12:33:29;100730.00;;;43.00
20289;BMP180;10303;51.960;8.372;2023-07-08T12:35:59;100728.00;;;43.00
20289;BMP180;10303;51.960;8.372;2023-07-08T12:38:32;100724.00;;;43.00
20289;BMP180;10303;51.960;8.372;2023-07-08T12:41:07;100729.00;;;43.00
20289;BMP180;10303;51.960;8.372;2023-07-08T12:43:34;100720.00;;;43.10
20289;BMP180;10303;51.960;8.372;2023-07-08T12:46:00;100714.00;;;43.10
20289;BMP180;10303;51.960;8.372;2023-07-08T12:48:35;100714.00;;;43.00
20289;BMP180;10303;51.960;8.372;2023-07-08T12:51:03;100719.00;;;43.10
20289;BMP180;10303;51.960;8.372;2023-07-08T12:53:29;100715.00;;;43.10
20289;BMP180;10303;51.960;8.372;2023-07-08T12:55:58;100714.00;;;43.10
20289;BMP180;10303;51.960;8.372;2023-07-08T12:58:29;100722.00;;;43.20
20289;BMP180;10303;51.960;8.372;2023-07-08T13:00:58;100716.00;;;43.20
20289;BMP180;10303;51.960;8.372;2023-07-08T13:03:29;100724.00;;;43.30
20289;BMP180;10303;51.960;8.372;2023-07-08T13:05:59;100724.00;;;43.30
20289;BMP180;10303;51.960;8.372;2023-07-08T13:08:34;100719.00;;;43.30
20289;BMP180;10303;51.960;8.372;2023-07-08T13:11:03;100713.00;;;43.30
20289;BMP180;10303;51.960;8.372;2023-07-08T13:13:38;100713.00;;;43.30
20289;BMP180;10303;51.960;8.372;2023-07-08T13:16:08;100726.00;;;43.40
20289;BMP180;10303;51.960;8.372;2023-07-08T13:18:41;100716.00;;;43.30
20289;BMP180;10303;51.960;8.372;2023-07-08T13:21:13;100724.00;;;43.30
20289;BMP180;10303;51.960;8.372;2023-07-08T13:23:41;100721.00;;;43.30
20289;BMP180;10303;51.960;8.372;2023-07-08T13:26:18;100717.00;;;43.30
20289;BMP180;10303;51.960;8.372;2023-07-08T13:28:46;100721.00;;;43.30
20289;BMP180;10303;51.960;8.372;2023-07-08T13:31:23;100724.00;;;43.20
20289;BMP180;10303;51.960;8.372;2023-07-08T13:33:55;100723.00;;;43.20
20289;BMP180;10303;51.960;8.372;2023-07-08T13:36:32;100707.00;;;43.20
20289;BMP180;10303;51.960;8.372;2023-07-08T13:39:05;100715.00;;;43.20
20289;BMP180;10303;51.960;8.372;2023-07-08T13:41:32;100717.00;;;43.30
20289;BMP180;10303;51.960;8.372;2023-07-08T13:44:08;100714.00;;;43.30
20289;BMP180;10303;51.960;8.372;2023-07-08T13:47:00;100723.00;;;43.20
20289;BMP180;10303;51.960;8.372;2023-07-08T13:49:42;100722.00;;;43.20
20289;BMP180;10303;51.960;8.372;2023-07-08T13:54:45;100710.00;;;43.20
20289;BMP180;10303;51.960;8.372;2023-07-08T13:57:17;100713.00;;;43.10
20289;BMP180;10303;51.960;8.372;2023-07-08T13:59:43;100701.00;;;43.00
20289;BMP180;10303;51.960;8.372;2023-07-08T14:02:25;100715.00;;;42.90
20289;BMP180;10303;51.960;8.372;2023-07-08T14:04:54;100713.00;;;42.80
20289;BMP180;10303;51.960;8.372;2023-07-08T14:07:28;100719.00;;;42.70
20289;BMP180;10303;51.960;8.372;2023-07-08T14:09:54;100703.00;;;42.60
20289;BMP180;10303;51.960;8.372;2023-07-08T14:12:21;100712.00;;;42.50
20289;BMP180;10303;51.960;8.372;2023-07-08T14:14:48;100723.00;;;42.40
20289;BMP180;10303;51.960;8.372;2023-07-08T14:17:24;100730.00;;;42.30
20289;BMP180;10303;51.960;8.372;2023-07-08T14:19:51;100723.00;;;42.20
20289;BMP180;10303;51.960;8.372;2023-07-08T14:22:26;100730.00;;;42.00
20289;BMP180;10303;51.960;8.372;2023-07-08T14:24:54;100715.00;;;41.90
20289;BMP180;10303;51.960;8.372;2023-07-08T14:27:21;100717.00;;;41.70
20289;BMP180;10303;51.960;8.372;2023-07-08T14:29:50;100728.00;;;41.60
20289;BMP180;10303;51.960;8.372;2023-07-08T14:32:26;100720.00;;;41.40
20289;BMP180;10303;51.960;8.372;2023-07-08T14:35:00;100723.00;;;41.30
20289;BMP180;10303;51.960;8.372;2023-07-08T14:37:29;100716.00;;;41.10
20289;BMP180;10303;51.960;8.372;2023-07-08T14:39:55;100714.00;;;40.90
20289;BMP180;10303;51.960;8.372;2023-07-08T14:42:21;100706.00;;;40.80
20289;BMP180;10303;51.960;8.372;2023-07-08T14:44:52;100713.00;;;40.60
20289;BMP180;10303;51.960;8.372;2023-07-08T14:47:19;100710.00;;;40.50
20289;BMP180;10303;51.960;8.372;2023-07-08T14:49:46;100708.00;;;40.30
20289;BMP180;10303;51.960;8.372;2023-07-08T14:52:12;100709.00;;;40.20
20289;BMP180;10303;51.960;8.372;2023-07-08T14:54:38;100716.00;;;40.10
20289;BMP180;10303;51.960;8.372;2023-07-08T14:57:06;100713.00;;;39.90
20289;BMP180;10303;51.960;8.372;2023-07-08T14:59:34;100715.00;;;39.70
20289;BMP180;10303;51.960;8.372;2023-07-08T15:02:19;100712.00;;;39.50
20289;BMP180;10303;51.960;8.372;2023-07-08T15:04:47;100709.00;;;39.40
20289;BMP180;10303;51.960;8.372;2023-07-08T15:07:13;100713.00;;;39.30
20289;BMP180;10303;51.960;8.372;2023-07-08T15:09:39;100711.00;;;39.20
20289;BMP180;10303;51.960;8.372;2023-07-08T15:12:09;100712.00;;;39.10
20289;BMP180;10303;51.960;8.372;2023-07-08T15:14:35;100710.00;;;39.00
20289;BMP180;10303;51.960;8.372;2023-07-08T15:17:01;100708.00;;;38.90
20289;BMP180;10303;51.960;8.372;2023-07-08T15:19:27;100706.00;;;38.80
20289;BMP180;10303;51.960;8.372;2023-07-08T15:21:54;100708.00;;;38.70
20289;BMP180;10303;51.960;8.372;2023-07-08T15:24:19;100710.00;;;38.70
20289;BMP180;10303;51.960;8.372;2023-07-08T15:26:48;100716.00;;;38.60
20289;BMP180;10303;51.960;8.372;2023-07-08T15:29:23;100720.00;;;38.50
20289;BMP180;10303;51.960;8.372;2023-07-08T15:31:50;100716.00;;;38.40
20289;BMP180;10303;51.960;8.372;2023-07-08T15:34:19;100712.00;;;38.30